sensor_id;sensor_type;location;lat;lon;timestamp;pressure;altitude;pressure_sealevel;temperature
76381;BMP280;65202;52.520;10.528;2023-07-16T00:00:15;100248.53;;;22.93
76381;BMP280;65202;52.520;10.528;2023-07-16T00:02:44;100258.66;;;22.99
76381;BMP280;65202;52.520;10.528;2023-07-16T00:05:11;100258.00;;;22.85
76381;BMP280;65202;52.520;10.528;2023-07-16T00:07:38;100249.75;;;22.65
76381;BMP280;65202;52.520;10.528;2023-07-16T00:10:05;100246.28;;;22.69
76381;BMP280;65202;52.520;10.528;2023-07-16T00:12:32;100229.31;;;22.67
76381;BMP280;65202;52.520;10.528;2023-07-16T00:14:59;100235.09;;;22.79
76381;BMP280;65202;52.520;10.528;2023-07-16T00:17:26;100241.03;;;22.80
76381;BMP280;65202;52.520;10.528;2023-07-16T00:19:53;100228.63;;;22.54
76381;BMP280;65202;52.520;10.528;2023-07-16T00:22:20;100234.56;;;22.56
76381;BMP280;65202;52.520;10.528;2023-07-16T00:24:47;100230.25;;;22.61
76381;BMP280;65202;52.520;10.528;2023-07-16T00:27:15;100267.75;;;22.52
76381;BMP280;65202;52.520;10.528;2023-07-16T00:29:42;100268.91;;;22.19
76381;BMP280;65202;52.520;10.528;2023-07-16T00:32:09;100268.69;;;22.43
76381;BMP280;65202;52.520;10.528;2023-07-16T00:34:36;100287.59;;;22.27
76381;BMP280;65202;52.520;10.528;2023-07-16T00:37:03;100299.38;;;22.37
76381;BMP280;65202;52.520;10.528;2023-07-16T00:39:30;100312.09;;;22.40
76381;BMP280;65202;52.520;10.528;2023-07-16T00:41:58;100325.81;;;22.24
76381;BMP280;65202;52.520;10.528;2023-07-16T00:44:25;100336.28;;;21.96
76381;BMP280;65202;52.520;10.528;2023-07-16T00:46:52;100353.25;;;22.00
76381;BMP280;65202;52.520;10.528;2023-07-16T00:49:19;100344.72;;;22.04
76381;BMP280;65202;52.520;10.528;2023-07-16T00:51:46;100338.84;;;21.92
76381;BMP280;65202;52.520;10.528;2023-07-16T00:54:13;100317.22;;;22.39
76381;BMP280;65202;52.520;10.528;2023-07-16T00:56:40;100318.09;;;22.36
76381;BMP280;65202;52.520;10.528;2023-07-16T00:59:07;100324.91;;;22.37
76381;BMP280;65202;52.520;10.528;2023-07-16T01:01:37;100327.19;;;22.58
76381;BMP280;65202;52.520;10.528;2023-07-16T01:04:04;100323.88;;;22.55
76381;BMP280;65202;52.520;10.528;2023-07-16T01:06:41;100315.41;;;22.51
76381;BMP280;65202;52.520;10.528;2023-07-16T01:09:17;100306.00;;;22.53
76381;BMP280;65202;52.520;10.528;2023-07-16T01:11:45;100291.13;;;22.10
76381;BMP280;65202;52.520;10.528;2023-07-16T01:14:14;100241.63;;;21.36
76381;BMP280;65202;52.520;10.528;2023-07-16T01:16:42;100219.25;;;21.74
76381;BMP280;65202;52.520;10.528;2023-07-16T01:19:10;100251.38;;;21.91
76381;BMP280;65202;52.520;10.528;2023-07-16T01:27:59;100331.84;;;22.15
76381;BMP280;65202;52.520;10.528;2023-07-16T01:30:31;100344.63;;;22.12
76381;BMP280;65202;52.520;10.528;2023-07-16T01:33:00;100361.72;;;22.01
76381;BMP280;65202;52.520;10.528;2023-07-16T01:35:28;100364.13;;;22.18
76381;BMP280;65202;52.520;10.528;2023-07-16T01:37:55;100373.44;;;22.22
76381;BMP280;65202;52.520;10.528;2023-07-16T01:40:22;100359.91;;;22.15
76381;BMP280;65202;52.520;10.528;2023-07-16T01:42:49;100349.22;;;21.71
76381;BMP280;65202;52.520;10.528;2023-07-16T01:45:16;100341.81;;;21.28
76381;BMP280;65202;52.520;10.528;2023-07-16T01:48:17;100312.03;;;21.39
76381;BMP280;65202;52.520;10.528;2023-07-16T01:50:48;100312.06;;;21.33
76381;BMP280;65202;52.520;10.528;2023-07-16T01:53:15;100315.50;;;21.24
76381;BMP280;65202;52.520;10.528;2023-07-16T01:55:42;100326.50;;;21.31
76381;BMP280;65202;52.520;10.528;2023-07-16T01:58:08;100332.47;;;21.31
76381;BMP280;65202;52.520;10.528;2023-07-16T02:00:36;100349.19;;;21.74
76381;BMP280;65202;52.520;10.528;2023-07-16T02:03:03;100350.94;;;21.69
76381;BMP280;65202;52.520;10.528;2023-07-16T02:05:30;100346.63;;;21.77
76381;BMP280;65202;52.520;10.528;2023-07-16T02:07:57;100327.47;;;21.04
76381;BMP280;65202;52.520;10.528;2023-07-16T02:10:24;100321.31;;;21.50
76381;BMP280;65202;52.520;10.528;2023-07-16T02:12:52;100327.09;;;21.74
76381;BMP280;65202;52.520;10.528;2023-07-16T02:15:19;100323.69;;;21.75
76381;BMP280;65202;52.520;10.528;2023-07-16T02:17:47;100336.72;;;21.22
76381;BMP280;65202;52.520;10.528;2023-07-16T02:20:14;100325.69;;;21.26
76381;BMP280;65202;52.520;10.528;2023-07-16T02:22:42;100312.19;;;21.10
76381;BMP280;65202;52.520;10.528;2023-07-16T02:25:09;100337.50;;;21.40
76381;BMP280;65202;52.520;10.528;2023-07-16T02:27:36;100348.81;;;20.72
76381;BMP280;65202;52.520;10.528;2023-07-16T02:30:03;100363.00;;;21.31
76381;BMP280;65202;52.520;10.528;2023-07-16T02:32:33;100356.94;;;21.57
76381;BMP280;65202;52.520;10.528;2023-07-16T02:35:01;100373.19;;;21.31
76381;BMP280;65202;52.520;10.528;2023-07-16T02:37:28;100379.09;;;21.33
76381;BMP280;65202;52.520;10.528;2023-07-16T02:39:56;100365.47;;;21.48
76381;BMP280;65202;52.520;10.528;2023-07-16T02:42:23;100371.53;;;21.24
76381;BMP280;65202;52.520;10.528;2023-07-16T02:44:50;100368.28;;;20.91
76381;BMP280;65202;52.520;10.528;2023-07-16T02:47:18;100353.69;;;21.24
76381;BMP280;65202;52.520;10.528;2023-07-16T02:49:45;100347.94;;;20.87
76381;BMP280;65202;52.520;10.528;2023-07-16T02:52:12;100362.34;;;20.83
76381;BMP280;65202;52.520;10.528;2023-07-16T02:54:39;100358.19;;;20.24
76381;BMP280;65202;52.520;10.528;2023-07-16T02:57:06;100364.13;;;20.35
76381;BMP280;65202;52.520;10.528;2023-07-16T02:59:33;100374.25;;;20.60
76381;BMP280;65202;52.520;10.528;2023-07-16T03:02:00;100383.63;;;20.21
76381;BMP280;65202;52.520;10.528;2023-07-16T03:04:27;100374.25;;;20.75
76381;BMP280;65202;52.520;10.528;2023-07-16T03:06:54;100392.09;;;19.93
76381;BMP280;65202;52.520;10.528;2023-07-16T03:09:21;100385.31;;;20.25
76381;BMP280;65202;52.520;10.528;2023-07-16T03:11:48;100373.41;;;19.82
76381;BMP280;65202;52.520;10.528;2023-07-16T03:14:15;100381.91;;;20.08
76381;BMP280;65202;52.520;10.528;2023-07-16T03:16:42;100379.34;;;20.60
76381;BMP280;65202;52.520;10.528;2023-07-16T03:19:09;100393.75;;;20.69
76381;BMP280;65202;52.520;10.528;2023-07-16T03:21:36;100392.06;;;20.38
76381;BMP280;65202;52.520;10.528;2023-07-16T03:24:03;100395.47;;;20.43
76381;BMP280;65202;52.520;10.528;2023-07-16T03:26:30;100398.00;;;19.91
76381;BMP280;65202;52.520;10.528;2023-07-16T03:28:57;100386.09;;;20.79
76381;BMP280;65202;52.520;10.528;2023-07-16T03:31:24;100391.22;;;20.49
76381;BMP280;65202;52.520;10.528;2023-07-16T03:33:51;100397.19;;;19.93
76381;BMP280;65202;52.520;10.528;2023-07-16T03:36:18;100403.06;;;19.91
76381;BMP280;65202;52.520;10.528;2023-07-16T03:38:45;100401.41;;;20.08
76381;BMP280;65202;52.520;10.528;2023-07-16T03:41:15;100409.84;;;19.92
76381;BMP280;65202;52.520;10.528;2023-07-16T03:43:42;100419.19;;;20.24
76381;BMP280;65202;52.520;10.528;2023-07-16T03:46:09;100420.91;;;20.15
76381;BMP280;65202;52.520;10.528;2023-07-16T03:48:36;100429.09;;;19.23
76381;BMP280;65202;52.520;10.528;2023-07-16T03:51:03;100424.28;;;19.96
76381;BMP280;65202;52.520;10.528;2023-07-16T03:53:30;100431.81;;;19.76
76381;BMP280;65202;52.520;10.528;2023-07-16T03:55:57;100442.91;;;20.13
76381;BMP280;65202;52.520;10.528;2023-07-16T03:58:24;100441.22;;;20.13
76381;BMP280;65202;52.520;10.528;2023-07-16T04:00:51;100438.66;;;19.94
76381;BMP280;65202;52.520;10.528;2023-07-16T04:03:18;100446.28;;;19.92
76381;BMP280;65202;52.520;10.528;2023-07-16T04:05:46;100446.22;;;19.89
76381;BMP280;65202;52.520;10.528;2023-07-16T04:08:13;100438.72;;;20.31
76381;BMP280;65202;52.520;10.528;2023-07-16T04:10:40;100445.47;;;20.10
76381;BMP280;65202;52.520;10.528;2023-07-16T04:13:07;100446.31;;;20.49
76381;BMP280;65202;52.520;10.528;2023-07-16T04:15:34;100450.56;;;20.36
76381;BMP280;65202;52.520;10.528;2023-07-16T04:18:01;100452.25;;;20.15
76381;BMP280;65202;52.520;10.528;2023-07-16T04:20:28;100451.38;;;20.04
76381;BMP280;65202;52.520;10.528;2023-07-16T04:22:57;100457.31;;;20.11
76381;BMP280;65202;52.520;10.528;2023-07-16T04:25:24;100453.06;;;19.93
76381;BMP280;65202;52.520;10.528;2023-07-16T04:27:51;100456.44;;;19.92
76381;BMP280;65202;52.520;10.528;2023-07-16T04:30:18;100456.50;;;20.49
76381;BMP280;65202;52.520;10.528;2023-07-16T04:32:45;100453.09;;;20.77
76381;BMP280;65202;52.520;10.528;2023-07-16T04:35:13;100469.19;;;20.67
76381;BMP280;65202;52.520;10.528;2023-07-16T04:37:40;100470.06;;;20.79
76381;BMP280;65202;52.520;10.528;2023-07-16T04:40:07;100485.31;;;20.69
76381;BMP280;65202;52.520;10.528;2023-07-16T04:42:35;100470.91;;;20.59
76381;BMP280;65202;52.520;10.528;2023-07-16T04:45:04;100495.47;;;20.21
76381;BMP280;65202;52.520;10.528;2023-07-16T04:47:32;100486.16;;;20.72
76381;BMP280;65202;52.520;10.528;2023-07-16T04:49:59;100488.72;;;20.77
76381;BMP280;65202;52.520;10.528;2023-07-16T04:52:26;100498.91;;;20.80
76381;BMP280;65202;52.520;10.528;2023-07-16T04:54:53;100507.38;;;20.96
76381;BMP280;65202;52.520;10.528;2023-07-16T04:57:20;100503.13;;;20.87
76381;BMP280;65202;52.520;10.528;2023-07-16T04:59:49;100499.75;;;20.80
76381;BMP280;65202;52.520;10.528;2023-07-16T05:02:16;100514.16;;;20.96
76381;BMP280;65202;52.520;10.528;2023-07-16T05:04:43;100513.31;;;20.88
76381;BMP280;65202;52.520;10.528;2023-07-16T05:07:11;100512.44;;;20.96
76381;BMP280;65202;52.520;10.528;2023-07-16T05:09:38;100514.16;;;20.83
76381;BMP280;65202;52.520;10.528;2023-07-16T05:12:05;100522.66;;;20.86
76381;BMP280;65202;52.520;10.528;2023-07-16T05:14:43;100521.75;;;20.71
76381;BMP280;65202;52.520;10.528;2023-07-16T05:17:10;100534.47;;;20.63
76381;BMP280;65202;52.520;10.528;2023-07-16T05:19:37;100528.56;;;21.00
76381;BMP280;65202;52.520;10.528;2023-07-16T05:22:08;100524.34;;;20.87
76381;BMP280;65202;52.520;10.528;2023-07-16T05:24:35;100526.03;;;21.00
76381;BMP280;65202;52.520;10.528;2023-07-16T05:27:02;100529.44;;;20.75
76381;BMP280;65202;52.520;10.528;2023-07-16T05:29:29;100536.22;;;20.82
76381;BMP280;65202;52.520;10.528;2023-07-16T05:31:56;100540.47;;;20.86
76381;BMP280;65202;52.520;10.528;2023-07-16T05:34:23;100538.78;;;20.82
76381;BMP280;65202;52.520;10.528;2023-07-16T05:36:53;100537.88;;;20.59
76381;BMP280;65202;52.520;10.528;2023-07-16T05:39:21;100541.28;;;20.60
76381;BMP280;65202;52.520;10.528;2023-07-16T05:41:49;100545.53;;;21.02
76381;BMP280;65202;52.520;10.528;2023-07-16T05:44:16;100548.94;;;20.94
76381;BMP280;65202;52.520;10.528;2023-07-16T05:46:43;100547.25;;;20.90
76381;BMP280;65202;52.520;10.528;2023-07-16T05:49:10;100549.81;;;20.80
76381;BMP280;65202;52.520;10.528;2023-07-16T05:51:37;100559.13;;;20.91
76381;BMP280;65202;52.520;10.528;2023-07-16T05:54:04;100570.97;;;20.96
76381;BMP280;65202;52.520;10.528;2023-07-16T05:56:31;100568.44;;;20.90
76381;BMP280;65202;52.520;10.528;2023-07-16T05:58:58;100572.66;;;20.94
76381;BMP280;65202;52.520;10.528;2023-07-16T06:01:25;100574.38;;;20.95
76381;BMP280;65202;52.520;10.528;2023-07-16T06:03:52;100578.59;;;21.07
76381;BMP280;65202;52.520;10.528;2023-07-16T06:06:20;100583.72;;;21.02
76381;BMP280;65202;52.520;10.528;2023-07-16T06:08:47;100579.47;;;21.13
76381;BMP280;65202;52.520;10.528;2023-07-16T06:11:15;100587.09;;;21.10
76381;BMP280;65202;52.520;10.528;2023-07-16T06:13:42;100586.22;;;21.22
76381;BMP280;65202;52.520;10.528;2023-07-16T06:16:09;100590.50;;;21.06
76381;BMP280;65202;52.520;10.528;2023-07-16T06:18:36;100590.50;;;21.14
76381;BMP280;65202;52.520;10.528;2023-07-16T06:21:03;100592.16;;;21.34
76381;BMP280;65202;52.520;10.528;2023-07-16T06:23:30;100599.00;;;21.08
76381;BMP280;65202;52.520;10.528;2023-07-16T06:25:57;100596.44;;;21.17
76381;BMP280;65202;52.520;10.528;2023-07-16T06:28:24;100582.84;;;21.20
76381;BMP280;65202;52.520;10.528;2023-07-16T06:30:51;100587.88;;;21.47
76381;BMP280;65202;52.520;10.528;2023-07-16T06:33:21;100596.41;;;21.40
76381;BMP280;65202;52.520;10.528;2023-07-16T06:35:48;100593.81;;;21.47
76381;BMP280;65202;52.520;10.528;2023-07-16T06:38:15;100593.00;;;21.38
76381;BMP280;65202;52.520;10.528;2023-07-16T06:40:46;100594.72;;;21.30
76381;BMP280;65202;52.520;10.528;2023-07-16T06:43:15;100597.25;;;21.40
76381;BMP280;65202;52.520;10.528;2023-07-16T06:45:42;100593.81;;;21.60
76381;BMP280;65202;52.520;10.528;2023-07-16T06:48:09;100607.38;;;21.67
76381;BMP280;65202;52.520;10.528;2023-07-16T06:50:36;100607.41;;;21.70
76381;BMP280;65202;52.520;10.528;2023-07-16T06:53:03;100608.28;;;21.61
76381;BMP280;65202;52.520;10.528;2023-07-16T06:55:30;100615.91;;;21.67
76381;BMP280;65202;52.520;10.528;2023-07-16T06:57:57;100612.50;;;21.67
76381;BMP280;65202;52.520;10.528;2023-07-16T07:00:25;100615.03;;;21.73
76381;BMP280;65202;52.520;10.528;2023-07-16T07:02:52;100624.34;;;21.77
76381;BMP280;65202;52.520;10.528;2023-07-16T07:05:19;100620.06;;;21.94
76381;BMP280;65202;52.520;10.528;2023-07-16T07:07:46;100617.44;;;22.06
76381;BMP280;65202;52.520;10.528;2023-07-16T07:10:13;100624.28;;;22.04
76381;BMP280;65202;52.520;10.528;2023-07-16T07:12:40;100620.06;;;21.94
76381;BMP280;65202;52.520;10.528;2023-07-16T07:15:07;100632.81;;;21.92
76381;BMP280;65202;52.520;10.528;2023-07-16T07:17:35;100627.75;;;21.82
76381;BMP280;65202;52.520;10.528;2023-07-16T07:20:02;100639.63;;;21.83
76381;BMP280;65202;52.520;10.528;2023-07-16T07:22:30;100637.84;;;22.06
76381;BMP280;65202;52.520;10.528;2023-07-16T07:24:58;100636.94;;;22.21
76381;BMP280;65202;52.520;10.528;2023-07-16T07:27:25;100642.91;;;22.26
76381;BMP280;65202;52.520;10.528;2023-07-16T07:29:52;100640.31;;;22.35
76381;BMP280;65202;52.520;10.528;2023-07-16T07:32:20;100647.13;;;22.29
76381;BMP280;65202;52.520;10.528;2023-07-16T07:34:48;100642.78;;;22.49
76381;BMP280;65202;52.520;10.528;2023-07-16T07:37:15;100649.66;;;22.36
76381;BMP280;65202;52.520;10.528;2023-07-16T07:39:42;100630.00;;;23.62
76381;BMP280;65202;52.520;10.528;2023-07-16T07:42:09;100629.44;;;23.34
76381;BMP280;65202;52.520;10.528;2023-07-16T07:44:36;100628.81;;;23.03
76381;BMP280;65202;52.520;10.528;2023-07-16T07:47:04;100626.44;;;22.77
76381;BMP280;65202;52.520;10.528;2023-07-16T07:49:31;100628.25;;;22.63
76381;BMP280;65202;52.520;10.528;2023-07-16T07:51:58;100611.38;;;23.47
76381;BMP280;65202;52.520;10.528;2023-07-16T07:54:26;100608.28;;;25.18
76381;BMP280;65202;52.520;10.528;2023-07-16T07:56:53;100596.53;;;25.97
76381;BMP280;65202;52.520;10.528;2023-07-16T07:59:20;100607.38;;;26.10
76381;BMP280;65202;52.520;10.528;2023-07-16T08:01:47;100605.97;;;26.34
76381;BMP280;65202;52.520;10.528;2023-07-16T08:04:14;100599.53;;;26.92
76381;BMP280;65202;52.520;10.528;2023-07-16T08:06:41;100598.16;;;27.12
76381;BMP280;65202;52.520;10.528;2023-07-16T08:09:08;100579.31;;;27.75
76381;BMP280;65202;52.520;10.528;2023-07-16T08:11:35;100575.53;;;28.18
76381;BMP280;65202;52.520;10.528;2023-07-16T08:14:02;100585.84;;;27.56
76381;BMP280;65202;52.520;10.528;2023-07-16T08:16:29;100578.41;;;28.63
76381;BMP280;65202;52.520;10.528;2023-07-16T08:18:56;100588.31;;;29.26
76381;BMP280;65202;52.520;10.528;2023-07-16T08:21:23;100588.31;;;27.91
76381;BMP280;65202;52.520;10.528;2023-07-16T08:23:51;100588.25;;;28.77
76381;BMP280;65202;52.520;10.528;2023-07-16T08:26:18;100591.34;;;29.86
76381;BMP280;65202;52.520;10.528;2023-07-16T08:28:46;100589.22;;;28.73
76381;BMP280;65202;52.520;10.528;2023-07-16T08:31:13;100594.25;;;27.31
76381;BMP280;65202;52.520;10.528;2023-07-16T08:33:40;100623.34;;;26.23
76381;BMP280;65202;52.520;10.528;2023-07-16T08:36:07;100619.06;;;26.99
76381;BMP280;65202;52.520;10.528;2023-07-16T08:38:34;100600.47;;;28.44
76381;BMP280;65202;52.520;10.528;2023-07-16T08:41:01;100606.78;;;28.34
76381;BMP280;65202;52.520;10.528;2023-07-16T08:43:28;100593.13;;;28.32
76381;BMP280;65202;52.520;10.528;2023-07-16T08:45:56;100618.69;;;28.92
76381;BMP280;65202;52.520;10.528;2023-07-16T08:48:24;100609.19;;;28.93
76381;BMP280;65202;52.520;10.528;2023-07-16T08:50:51;100615.72;;;28.78
76381;BMP280;65202;52.520;10.528;2023-07-16T08:53:18;100607.31;;;29.49
76381;BMP280;65202;52.520;10.528;2023-07-16T08:55:45;100613.84;;;29.08
76381;BMP280;65202;52.520;10.528;2023-07-16T08:58:16;100620.97;;;27.26
76381;BMP280;65202;52.520;10.528;2023-07-16T09:00:47;100609.75;;;27.92
76381;BMP280;65202;52.520;10.528;2023-07-16T09:03:15;100616.31;;;27.39
76381;BMP280;65202;52.520;10.528;2023-07-16T09:05:45;100631.88;;;27.34
76381;BMP280;65202;52.520;10.528;2023-07-16T09:08:12;100622.34;;;27.70
76381;BMP280;65202;52.520;10.528;2023-07-16T09:10:43;100619.00;;;29.08
76381;BMP280;65202;52.520;10.528;2023-07-16T09:13:10;100616.53;;;27.94
76381;BMP280;65202;52.520;10.528;2023-07-16T09:15:37;100615.03;;;28.99
76381;BMP280;65202;52.520;10.528;2023-07-16T09:18:06;100617.25;;;28.28
76381;BMP280;65202;52.520;10.528;2023-07-16T09:20:33;100614.44;;;28.37
76381;BMP280;65202;52.520;10.528;2023-07-16T09:23:00;100614.38;;;28.38
76381;BMP280;65202;52.520;10.528;2023-07-16T09:25:31;100612.84;;;29.13
76381;BMP280;65202;52.520;10.528;2023-07-16T09:28:02;100609.56;;;29.08
76381;BMP280;65202;52.520;10.528;2023-07-16T09:30:33;100603.59;;;28.80
76381;BMP280;65202;52.520;10.528;2023-07-16T09:33:10;100611.38;;;28.52
76381;BMP280;65202;52.520;10.528;2023-07-16T09:35:38;100604.47;;;29.57
76381;BMP280;65202;52.520;10.528;2023-07-16T09:38:07;100618.50;;;28.98
76381;BMP280;65202;52.520;10.528;2023-07-16T09:40:38;100620.63;;;28.30
76381;BMP280;65202;52.520;10.528;2023-07-16T09:43:06;100616.06;;;28.39
76381;BMP280;65202;52.520;10.528;2023-07-16T09:45:33;100616.25;;;28.61
76381;BMP280;65202;52.520;10.528;2023-07-16T09:48:01;100608.91;;;28.76
76381;BMP280;65202;52.520;10.528;2023-07-16T09:50:29;100602.78;;;29.56
76381;BMP280;65202;52.520;10.528;2023-07-16T09:52:57;100607.66;;;29.39
76381;BMP280;65202;52.520;10.528;2023-07-16T09:55:25;100613.81;;;29.09
76381;BMP280;65202;52.520;10.528;2023-07-16T09:57:56;100621.63;;;28.80
76381;BMP280;65202;52.520;10.528;2023-07-16T10:00:24;100620.81;;;29.56
76381;BMP280;65202;52.520;10.528;2023-07-16T10:02:52;100622.78;;;28.98
76381;BMP280;65202;52.520;10.528;2023-07-16T10:05:24;100628.09;;;29.45
76381;BMP280;65202;52.520;10.528;2023-07-16T10:10:20;100631.34;;;29.24
76381;BMP280;65202;52.520;10.528;2023-07-16T10:12:55;100631.72;;;29.64
76381;BMP280;65202;52.520;10.528;2023-07-16T10:15:29;100625.84;;;30.73
76381;BMP280;65202;52.520;10.528;2023-07-16T10:17:56;100626.97;;;29.76
76381;BMP280;65202;52.520;10.528;2023-07-16T10:20:35;100637.75;;;29.63
76381;BMP280;65202;52.520;10.528;2023-07-16T10:23:13;100635.81;;;29.94
76381;BMP280;65202;52.520;10.528;2023-07-16T10:25:47;100642.25;;;29.33
76381;BMP280;65202;52.520;10.528;2023-07-16T10:28:24;100631.22;;;30.01
76381;BMP280;65202;52.520;10.528;2023-07-16T10:30:51;100633.88;;;29.51
76381;BMP280;65202;52.520;10.528;2023-07-16T10:33:18;100638.06;;;29.30
76381;BMP280;65202;52.520;10.528;2023-07-16T10:35:46;100631.41;;;29.23
76381;BMP280;65202;52.520;10.528;2023-07-16T10:38:13;100636.13;;;29.36
76381;BMP280;65202;52.520;10.528;2023-07-16T10:40:45;100637.38;;;29.25
76381;BMP280;65202;52.520;10.528;2023-07-16T10:43:12;100635.72;;;29.22
76381;BMP280;65202;52.520;10.528;2023-07-16T10:45:39;100631.38;;;28.71
76381;BMP280;65202;52.520;10.528;2023-07-16T10:48:07;100642.16;;;28.56
76381;BMP280;65202;52.520;10.528;2023-07-16T10:50:35;100635.72;;;28.96
76381;BMP280;65202;52.520;10.528;2023-07-16T10:53:02;100637.84;;;28.84
76381;BMP280;65202;52.520;10.528;2023-07-16T10:55:30;100637.63;;;29.17
76381;BMP280;65202;52.520;10.528;2023-07-16T10:58:04;100639.41;;;28.89
76381;BMP280;65202;52.520;10.528;2023-07-16T11:00:32;100638.06;;;28.22
76381;BMP280;65202;52.520;10.528;2023-07-16T11:02:59;100640.47;;;28.26
76381;BMP280;65202;52.520;10.528;2023-07-16T11:05:26;100650.31;;;28.41
76381;BMP280;65202;52.520;10.528;2023-07-16T11:07:55;100631.16;;;28.22
76381;BMP280;65202;52.520;10.528;2023-07-16T11:10:23;100628.47;;;28.27
76381;BMP280;65202;52.520;10.528;2023-07-16T11:12:52;100638.31;;;28.42
76381;BMP280;65202;52.520;10.528;2023-07-16T11:15:35;100635.97;;;28.33
76381;BMP280;65202;52.520;10.528;2023-07-16T11:18:02;100632.31;;;28.68
76381;BMP280;65202;52.520;10.528;2023-07-16T11:20:30;100640.31;;;28.32
76381;BMP280;65202;52.520;10.528;2023-07-16T11:22:59;100639.81;;;28.20
76381;BMP280;65202;52.520;10.528;2023-07-16T11:25:29;100639.94;;;28.71
76381;BMP280;65202;52.520;10.528;2023-07-16T11:27:56;100639.97;;;28.43
76381;BMP280;65202;52.520;10.528;2023-07-16T11:30:24;100636.47;;;28.72
76381;BMP280;65202;52.520;10.528;2023-07-16T11:32:52;100642.97;;;27.99
76381;BMP280;65202;52.520;10.528;2023-07-16T11:35:20;100647.69;;;28.14
76381;BMP280;65202;52.520;10.528;2023-07-16T11:37:47;100642.53;;;27.52
76381;BMP280;65202;52.520;10.528;2023-07-16T11:40:16;100642.97;;;27.99
76381;BMP280;65202;52.520;10.528;2023-07-16T11:42:44;100649.94;;;28.55
76381;BMP280;65202;52.520;10.528;2023-07-16T11:45:19;100645.44;;;28.88
76381;BMP280;65202;52.520;10.528;2023-07-16T11:47:46;100638.75;;;27.97
76381;BMP280;65202;52.520;10.528;2023-07-16T11:50:13;100644.25;;;28.44
76381;BMP280;65202;52.520;10.528;2023-07-16T11:52:41;100645.38;;;28.05
76381;BMP280;65202;52.520;10.528;2023-07-16T11:55:08;100652.41;;;28.29
76381;BMP280;65202;52.520;10.528;2023-07-16T11:57:35;100647.44;;;27.93
76381;BMP280;65202;52.520;10.528;2023-07-16T12:00:03;100655.25;;;27.59
76381;BMP280;65202;52.520;10.528;2023-07-16T12:02:30;100649.34;;;28.16
76381;BMP280;65202;52.520;10.528;2023-07-16T12:04:57;100644.78;;;27.96
76381;BMP280;65202;52.520;10.528;2023-07-16T12:07:36;100646.19;;;27.75
76381;BMP280;65202;52.520;10.528;2023-07-16T12:10:05;100658.38;;;27.69
76381;BMP280;65202;52.520;10.528;2023-07-16T12:12:33;100646.56;;;27.29
76381;BMP280;65202;52.520;10.528;2023-07-16T12:15:00;100645.59;;;27.34
76381;BMP280;65202;52.520;10.528;2023-07-16T12:17:27;100659.66;;;27.53
76381;BMP280;65202;52.520;10.528;2023-07-16T12:19:54;100663.41;;;27.07
76381;BMP280;65202;52.520;10.528;2023-07-16T12:22:21;100653.53;;;27.58
76381;BMP280;65202;52.520;10.528;2023-07-16T12:24:49;100648.50;;;27.86
76381;BMP280;65202;52.520;10.528;2023-07-16T12:27:17;100642.78;;;28.05
76381;BMP280;65202;52.520;10.528;2023-07-16T12:29:45;100647.94;;;28.63
76381;BMP280;65202;52.520;10.528;2023-07-16T12:32:13;100662.59;;;28.03
76381;BMP280;65202;52.520;10.528;2023-07-16T12:34:40;100674.69;;;27.69
76381;BMP280;65202;52.520;10.528;2023-07-16T12:37:07;100657.78;;;27.91
76381;BMP280;65202;52.520;10.528;2023-07-16T12:39:34;100658.13;;;27.78
76381;BMP280;65202;52.520;10.528;2023-07-16T12:42:01;100658.72;;;28.19
76381;BMP280;65202;52.520;10.528;2023-07-16T12:44:29;100657.72;;;28.24
76381;BMP280;65202;52.520;10.528;2023-07-16T12:46:56;100669.00;;;27.89
76381;BMP280;65202;52.520;10.528;2023-07-16T12:49:23;100665.47;;;28.23
76381;BMP280;65202;52.520;10.528;2023-07-16T12:51:50;100662.03;;;28.51
76381;BMP280;65202;52.520;10.528;2023-07-16T12:54:17;100665.47;;;28.23
76381;BMP280;65202;52.520;10.528;2023-07-16T12:56:44;100671.06;;;27.76
76381;BMP280;65202;52.520;10.528;2023-07-16T12:59:11;100668.41;;;28.09
76381;BMP280;65202;52.520;10.528;2023-07-16T13:01:52;100663.84;;;27.89
76381;BMP280;65202;52.520;10.528;2023-07-16T13:04:19;100668.88;;;27.61
76381;BMP280;65202;52.520;10.528;2023-07-16T13:06:46;100678.66;;;27.81
76381;BMP280;65202;52.520;10.528;2023-07-16T13:09:14;100677.00;;;28.08
76381;BMP280;65202;52.520;10.528;2023-07-16T13:11:42;100669.59;;;28.28
76381;BMP280;65202;52.520;10.528;2023-07-16T13:14:09;100665.06;;;28.06
76381;BMP280;65202;52.520;10.528;2023-07-16T13:16:36;100668.94;;;28.22
76381;BMP280;65202;52.520;10.528;2023-07-16T13:19:03;100678.16;;;28.29
76381;BMP280;65202;52.520;10.528;2023-07-16T13:21:31;100672.88;;;28.03
76381;BMP280;65202;52.520;10.528;2023-07-16T13:23:57;100678.00;;;27.73
76381;BMP280;65202;52.520;10.528;2023-07-16T13:26:24;100684.97;;;27.69
76381;BMP280;65202;52.520;10.528;2023-07-16T13:28:51;100665.47;;;28.23
76381;BMP280;65202;52.520;10.528;2023-07-16T13:31:19;100673.44;;;28.43
76381;BMP280;65202;52.520;10.528;2023-07-16T13:33:46;100674.59;;;28.62
76381;BMP280;65202;52.520;10.528;2023-07-16T13:36:13;100674.31;;;28.13
76381;BMP280;65202;52.520;10.528;2023-07-16T13:38:40;100694.25;;;28.37
76381;BMP280;65202;52.520;10.528;2023-07-16T13:41:07;100680.84;;;28.26
76381;BMP280;65202;52.520;10.528;2023-07-16T13:43:34;100682.16;;;27.78
76381;BMP280;65202;52.520;10.528;2023-07-16T13:46:01;100674.38;;;28.10
76381;BMP280;65202;52.520;10.528;2023-07-16T13:48:28;100681.59;;;28.29
76381;BMP280;65202;52.520;10.528;2023-07-16T13:51:03;100679.41;;;28.16
76381;BMP280;65202;52.520;10.528;2023-07-16T13:53:30;100681.56;;;27.99
76381;BMP280;65202;52.520;10.528;2023-07-16T13:55:57;100688.59;;;27.94